Time;durP1;ratioP1;P1;durP2;ratioP2;P2;SDS_P1;SDS_P2;PMS_P1;PMS_P2;Temp;Humidity;BMP_temperature;BMP_pressure;BME280_temperature;BME280_humidity;BME280_pressure;Samples;Min_cycle;Max_cycle;Signal;HPM_P1;HPM_P2
2022/02/25 00:00:23;;;;;;;;;;;;;;;;;;2097211;28;20251;-54
2022/02/25 00:01:24;;;;;;;;;;;;;;;;;;2099125;28;19925;-54
2022/02/25 00:02:26;;;;;;;;;;;;;;;;;;2095905;28;19929;-53
2022/02/25 00:03:27;;;;;;;;;;;;;;;;;;2096742;28;20389;-54
2022/02/25 00:04:28;;;;;;;;;;;;;;;;;;2099039;28;19932;-54
2022/02/25 00:05:29;;;;;;;;;;;;;;;;;;2097423;28;20385;-54
2022/02/25 00:06:30;;;;;;;;;;;;;;;;;;2099107;28;19987;-54
2022/02/25 00:07:30;;;;;;;;;;;;;;;;;;2098688;28;20423;-51
2022/02/25 00:08:33;;;;;;;;;;;;;;;;;;2097379;28;20355;-55
2022/02/25 00:09:33;;;;;;;;;;;;;;;;;;2099324;28;20023;-53
2022/02/25 00:10:34;;;;;;;;;;;;;;;;;;2098005;28;20370;-45
2022/02/25 00:11:35;;;;;;;;;;;;;;;;;;2092332;28;20321;-44
2022/02/25 00:12:36;;;;;;;;;;;;;;;;;;2091171;28;19925;-44
2022/02/25 00:13:37;;;;;;;;;;;;;;;;;;2093768;28;19978;-44
2022/02/25 00:14:38;;;;;;;;;;;;;;;;;;2098751;28;19925;-44
2022/02/25 00:15:38;;;;;;;;;;;;;;;;;;2099451;28;20382;-54
2022/02/25 00:16:39;;;;;;;;;;;;;;;;;;2095663;28;20277;-52
2022/02/25 00:17:40;;;;;;;;;;;;;;;;;;2098981;28;19963;-54
2022/02/25 00:18:41;;;;;;;;;;;;;;;;;;2099266;28;19954;-53
2022/02/25 00:19:42;;;;;;;;;;;;;;;;;;2095478;28;19931;-54
2022/02/25 00:20:43;;;;;;;;;;;;;;;;;;2099014;28;19940;-53
2022/02/25 00:21:44;;;;;;;;;;;;;;;;;;2097758;28;19929;-53
2022/02/25 00:22:45;;;;;;;;;;;;;;;;;;2097336;28;20024;-53
2022/02/25 00:23:46;;;;;;;;;;;;;;;;;;2099013;28;19959;-51
2022/02/25 00:24:46;;;;;;;;;;;;;;;;;;2096491;28;19929;-52
2022/02/25 00:25:48;;;;;;;;;;;;;;;;;;2097444;28;20009;-53
2022/02/25 00:26:49;;;;;;;;;;;;;;;;;;2099044;28;20035;-52
2022/02/25 00:27:50;;;;;;;;;;;;;;;;;;2096826;28;19978;-55
2022/02/25 00:28:51;;;;;;;;;;;;;;;;;;2098232;28;19925;-53
2022/02/25 00:29:54;;;;;;;;;;;;;;;;;;2098964;28;19925;-54
2022/02/25 00:30:55;;;;;;;;;;;;;;;;;;2095779;28;19931;-55
2022/02/25 00:31:56;;;;;;;;;;;;;;;;;;2099043;28;20352;-53
2022/02/25 00:32:57;;;;;;;;;;;;;;;;;;2098398;28;19990;-54
2022/02/25 00:33:58;;;;;;;;;;;;;;;;;;2096215;28;19939;-53
2022/02/25 00:34:59;;;;;;;;;;;;;;;;;;2099348;28;19925;-55
2022/02/25 00:36:00;;;;;;;;;;;;;;;;;;2096970;28;20015;-55
2022/02/25 00:37:00;;;;;;;;;;;;;;;;;;2096451;28;19924;-54
2022/02/25 00:38:01;;;;;;;;;;;;;;;;;;2098892;28;19924;-52
2022/02/25 00:39:02;;;;;;;;;;;;;;;;;;2097999;28;19932;-53
2022/02/25 00:40:03;;;;;;;;;;;;;;;;;;2097668;28;20388;-53
2022/02/25 00:41:04;;;;;;;;;;;;;;;;;;2098932;28;19971;-54
2022/02/25 00:42:07;;;;;;;;;;;;;;;;;;2097169;28;20384;-54
2022/02/25 00:43:08;;;;;;;;;;;;;;;;;;2090655;28;19932;-54
2022/02/25 00:44:09;;;;;;;;;;;;;;;;;;2090720;28;20275;-54
2022/02/25 00:45:10;;;;;;;;;;;;;;;;;;2095712;28;19940;-53
2022/02/25 00:46:10;;;;;;;;;;;;;;;;;;2099210;28;19925;-44
2022/02/25 00:47:11;;;;;;;;;;;;;;;;;;2098588;28;19924;-44
2022/02/25 00:48:12;;;;;;;;;;;;;;;;;;2097251;28;19925;-44
2022/02/25 00:49:13;;;;;;;;;;;;;;;;;;2098897;28;19935;-44
2022/02/25 00:50:14;;;;;;;;;;;;;;;;;;2098253;28;19924;-44
2022/02/25 00:51:15;;;;;;;;;;;;;;;;;;2097446;28;20296;-44
2022/02/25 00:52:16;;;;;;;;;;;;;;;;;;2098771;28;20321;-53
2022/02/25 00:53:16;;;;;;;;;;;;;;;;;;2097878;28;19924;-54
2022/02/25 00:54:17;;;;;;;;;;;;;;;;;;2096512;28;19963;-53
2022/02/25 00:55:18;;;;;;;;;;;;;;;;;;2099057;28;19925;-54
2022/02/25 00:56:21;;;;;;;;;;;;;;;;;;2095304;28;20007;-54
2022/02/25 00:57:23;;;;;;;;;;;;;;;;;;2099025;28;19924;-54
2022/02/25 00:58:24;;;;;;;;;;;;;;;;;;2098774;28;20395;-55
2022/02/25 00:59:25;;;;;;;;;;;;;;;;;;2096720;28;19941;-53
2022/02/25 01:00:26;;;;;;;;;;;;;;;;;;2098886;28;20404;-54
2022/02/25 01:01:26;;;;;;;;;;;;;;;;;;2096900;28;20015;-52
2022/02/25 01:02:28;;;;;;;;;;;;;;;;;;2097578;28;20369;-54
2022/02/25 01:03:31;;;;;;;;;;;;;;;;;;2098391;28;19964;-51
2022/02/25 01:04:32;;;;;;;;;;;;;;;;;;2096929;28;20482;-54
2022/02/25 01:05:33;;;;;;;;;;;;;;;;;;2097522;28;19932;-56
2022/02/25 01:06:33;;;;;;;;;;;;;;;;;;2098620;28;20004;-55
2022/02/25 01:07:34;;;;;;;;;;;;;;;;;;2096950;28;19932;-54
2022/02/25 01:08:35;;;;;;;;;;;;;;;;;;2090676;28;19931;-54
2022/02/25 01:09:36;;;;;;;;;;;;;;;;;;2090673;28;20333;-52
2022/02/25 01:10:37;;;;;;;;;;;;;;;;;;2095426;28;19925;-54
2022/02/25 01:11:38;;;;;;;;;;;;;;;;;;2098588;28;20357;-55
2022/02/25 01:12:39;;;;;;;;;;;;;;;;;;2098369;28;20015;-54
2022/02/25 01:13:40;;;;;;;;;;;;;;;;;;2095869;28;19932;-54
2022/02/25 01:14:41;;;;;;;;;;;;;;;;;;2098769;28;19928;-54
2022/02/25 01:15:42;;;;;;;;;;;;;;;;;;2097375;28;19925;-54
2022/02/25 01:16:42;;;;;;;;;;;;;;;;;;2096906;28;19931;-54
2022/02/25 01:17:43;;;;;;;;;;;;;;;;;;2098836;28;19957;-54
2022/02/25 01:18:44;;;;;;;;;;;;;;;;;;2097679;28;19931;-55
2022/02/25 01:19:45;;;;;;;;;;;;;;;;;;2097590;28;19925;-54
2022/02/25 01:20:46;;;;;;;;;;;;;;;;;;2098383;28;19925;-44
2022/02/25 01:21:47;;;;;;;;;;;;;;;;;;2096689;28;19925;-45
2022/02/25 01:22:47;;;;;;;;;;;;;;;;;;2098634;28;19947;-44
2022/02/25 01:23:48;;;;;;;;;;;;;;;;;;2098821;28;19924;-44
2022/02/25 01:24:49;;;;;;;;;;;;;;;;;;2094551;28;19987;-54
2022/02/25 01:25:50;;;;;;;;;;;;;;;;;;2098634;28;19931;-52
2022/02/25 01:26:51;;;;;;;;;;;;;;;;;;2098565;28;19936;-51
2022/02/25 01:27:52;;;;;;;;;;;;;;;;;;2096973;28;20278;-53
2022/02/25 01:28:53;;;;;;;;;;;;;;;;;;2098867;28;19975;-53
2022/02/25 01:29:54;;;;;;;;;;;;;;;;;;2097410;28;19924;-52
2022/02/25 01:30:56;;;;;;;;;;;;;;;;;;2097231;28;19974;-54
2022/02/25 01:31:57;;;;;;;;;;;;;;;;;;2098923;28;20431;-43
2022/02/25 01:32:57;;;;;;;;;;;;;;;;;;2096830;28;19956;-44
2022/02/25 01:33:59;;;;;;;;;;;;;;;;;;2098890;28;19925;-44
2022/02/25 01:34:59;;;;;;;;;;;;;;;;;;2098604;28;19925;-43
2022/02/25 01:36:00;;;;;;;;;;;;;;;;;;2095152;28;20243;-44
2022/02/25 01:37:01;;;;;;;;;;;;;;;;;;2098278;28;20050;-44
2022/02/25 01:38:02;;;;;;;;;;;;;;;;;;2098593;28;20077;-45
2022/02/25 01:39:03;;;;;;;;;;;;;;;;;;2095012;28;19925;-44
2022/02/25 01:40:04;;;;;;;;;;;;;;;;;;2098659;28;19928;-44
2022/02/25 01:41:05;;;;;;;;;;;;;;;;;;2096968;28;19925;-44
2022/02/25 01:42:06;;;;;;;;;;;;;;;;;;2096854;28;20011;-44
2022/02/25 01:43:06;;;;;;;;;;;;;;;;;;2098510;28;19924;-45
2022/02/25 01:44:07;;;;;;;;;;;;;;;;;;2097273;28;19947;-44
2022/02/25 01:45:08;;;;;;;;;;;;;;;;;;2097069;28;20031;-45
2022/02/25 01:46:09;;;;;;;;;;;;;;;;;;2098338;28;19924;-44
2022/02/25 01:47:11;;;;;;;;;;;;;;;;;;2095325;28;19925;-44
2022/02/25 01:48:11;;;;;;;;;;;;;;;;;;2098463;28;19982;-44
2022/02/25 01:49:12;;;;;;;;;;;;;;;;;;2098859;28;19925;-51
2022/02/25 01:50:13;;;;;;;;;;;;;;;;;;2096358;28;20032;-53
2022/02/25 01:51:14;;;;;;;;;;;;;;;;;;2098895;28;19935;-54
2022/02/25 01:52:15;;;;;;;;;;;;;;;;;;2098225;28;19931;-44
2022/02/25 01:53:19;;;;;;;;;;;;;;;;;;2095421;28;19948;-44
2022/02/25 01:54:20;;;;;;;;;;;;;;;;;;2098552;28;20004;-44
2022/02/25 01:55:21;;;;;;;;;;;;;;;;;;2097784;28;20378;-44
2022/02/25 01:56:22;;;;;;;;;;;;;;;;;;2097052;28;19963;-45
2022/02/25 01:57:23;;;;;;;;;;;;;;;;;;2098413;28;19928;-43
2022/02/25 01:58:25;;;;;;;;;;;;;;;;;;2097584;28;19937;-43
2022/02/25 01:59:26;;;;;;;;;;;;;;;;;;2097107;28;20011;-43
2022/02/25 02:00:26;;;;;;;;;;;;;;;;;;2098290;28;19925;-44
2022/02/25 02:01:27;;;;;;;;;;;;;;;;;;2096259;28;19925;-44
2022/02/25 02:02:28;;;;;;;;;;;;;;;;;;2090142;28;20275;-44
2022/02/25 02:03:29;;;;;;;;;;;;;;;;;;2096184;28;19987;-54
2022/02/25 02:04:30;;;;;;;;;;;;;;;;;;2096175;28;19990;-55
2022/02/25 02:05:32;;;;;;;;;;;;;;;;;;2098442;28;20050;-54
2022/02/25 02:06:33;;;;;;;;;;;;;;;;;;2097093;28;19924;-55
2022/02/25 02:07:34;;;;;;;;;;;;;;;;;;2096289;28;19975;-53
2022/02/25 02:08:35;;;;;;;;;;;;;;;;;;2098362;28;19925;-51
2022/02/25 02:09:36;;;;;;;;;;;;;;;;;;2096110;28;19980;-55
2022/02/25 02:10:37;;;;;;;;;;;;;;;;;;2097426;28;19932;-54
2022/02/25 02:11:38;;;;;;;;;;;;;;;;;;2098097;28;19955;-55
2022/02/25 02:12:39;;;;;;;;;;;;;;;;;;2096323;28;19968;-53
2022/02/25 02:13:40;;;;;;;;;;;;;;;;;;2098411;28;19928;-54
2022/02/25 02:14:40;;;;;;;;;;;;;;;;;;2098453;28;19974;-54
2022/02/25 02:15:41;;;;;;;;;;;;;;;;;;2096418;28;19982;-54
2022/02/25 02:16:42;;;;;;;;;;;;;;;;;;2098582;28;19925;-55
2022/02/25 02:17:43;;;;;;;;;;;;;;;;;;2098299;28;20010;-54
2022/02/25 02:18:44;;;;;;;;;;;;;;;;;;2096370;28;19924;-54
2022/02/25 02:19:45;;;;;;;;;;;;;;;;;;2098276;28;19924;-54
2022/02/25 02:20:46;;;;;;;;;;;;;;;;;;2096210;28;19925;-55
2022/02/25 02:21:47;;;;;;;;;;;;;;;;;;2097120;28;19925;-55
2022/02/25 02:22:48;;;;;;;;;;;;;;;;;;2098247;28;19924;-54
2022/02/25 02:23:49;;;;;;;;;;;;;;;;;;2094769;28;19928;-54
2022/02/25 02:24:50;;;;;;;;;;;;;;;;;;2097360;28;19977;-45
2022/02/25 02:25:50;;;;;;;;;;;;;;;;;;2097997;28;19924;-55
2022/02/25 02:26:51;;;;;;;;;;;;;;;;;;2094901;28;20015;-53
2022/02/25 02:29:12;;;;;;;;;;;;;;;;;;2097734;28;19994;-55
2022/02/25 02:30:13;;;;;;;;;;;;;;;;;;2096423;28;20392;-54
2022/02/25 02:31:13;;;;;;;;;;;;;;;;;;2098640;28;19981;-53
2022/02/25 02:32:14;;;;;;;;;;;;;;;;;;2096074;28;20381;-55
2022/02/25 02:33:16;;;;;;;;;;;;;;;;;;2096731;28;19959;-54
2022/02/25 02:34:17;;;;;;;;;;;;;;;;;;2098405;28;20015;-54
2022/02/25 02:35:18;;;;;;;;;;;;;;;;;;2093658;28;20367;-55
2022/02/25 02:36:18;;;;;;;;;;;;;;;;;;2098143;28;19925;-55
2022/02/25 02:37:19;;;;;;;;;;;;;;;;;;2098234;28;20011;-54
2022/02/25 02:38:20;;;;;;;;;;;;;;;;;;2096202;28;19925;-55
2022/02/25 02:39:21;;;;;;;;;;;;;;;;;;2098496;28;19924;-54
2022/02/25 02:40:22;;;;;;;;;;;;;;;;;;2098579;28;20385;-54
2022/02/25 02:41:23;;;;;;;;;;;;;;;;;;2094593;28;20007;-53
2022/02/25 02:42:24;;;;;;;;;;;;;;;;;;2098142;28;19935;-52
2022/02/25 02:43:25;;;;;;;;;;;;;;;;;;2097757;28;19925;-52
2022/02/25 02:44:26;;;;;;;;;;;;;;;;;;2096232;28;19928;-53
2022/02/25 02:45:27;;;;;;;;;;;;;;;;;;2098167;28;19924;-55
2022/02/25 02:46:27;;;;;;;;;;;;;;;;;;2096698;28;19924;-55
2022/02/25 02:47:29;;;;;;;;;;;;;;;;;;2096225;28;19981;-55
2022/02/25 02:48:29;;;;;;;;;;;;;;;;;;2098148;28;19971;-55
2022/02/25 02:49:30;;;;;;;;;;;;;;;;;;2096468;28;19931;-54
2022/02/25 02:50:31;;;;;;;;;;;;;;;;;;2097595;28;20007;-58
2022/02/25 02:51:32;;;;;;;;;;;;;;;;;;2098088;28;19924;-55
2022/02/25 02:52:33;;;;;;;;;;;;;;;;;;2096009;28;19948;-52
2022/02/25 02:53:34;;;;;;;;;;;;;;;;;;2098036;28;19959;-54
2022/02/25 02:54:35;;;;;;;;;;;;;;;;;;2098456;28;20368;-46
2022/02/25 02:55:36;;;;;;;;;;;;;;;;;;2094516;28;20067;-44
2022/02/25 02:56:39;;;;;;;;;;;;;;;;;;2097829;28;19925;-44
2022/02/25 02:57:40;;;;;;;;;;;;;;;;;;2097339;28;19928;-45
2022/02/25 02:58:40;;;;;;;;;;;;;;;;;;2096471;28;19924;-45
2022/02/25 02:59:41;;;;;;;;;;;;;;;;;;2098112;28;19924;-44
2022/02/25 03:00:42;;;;;;;;;;;;;;;;;;2096116;28;19924;-45
2022/02/25 03:01:43;;;;;;;;;;;;;;;;;;2097985;28;19928;-44
2022/02/25 03:02:44;;;;;;;;;;;;;;;;;;2098002;28;20476;-45
2022/02/25 03:03:45;;;;;;;;;;;;;;;;;;2094815;28;19925;-44
2022/02/25 03:04:46;;;;;;;;;;;;;;;;;;2097927;28;19925;-44
2022/02/25 03:05:47;;;;;;;;;;;;;;;;;;2098066;28;19924;-44
2022/02/25 03:06:48;;;;;;;;;;;;;;;;;;2094549;28;20007;-45
2022/02/25 03:07:49;;;;;;;;;;;;;;;;;;2089760;28;19947;-45
2022/02/25 03:08:49;;;;;;;;;;;;;;;;;;2089315;28;19971;-45
2022/02/25 03:09:51;;;;;;;;;;;;;;;;;;2095839;28;19966;-44
2022/02/25 03:10:53;;;;;;;;;;;;;;;;;;2097694;28;19979;-55
2022/02/25 03:11:54;;;;;;;;;;;;;;;;;;2095815;28;20031;-52
2022/02/25 03:12:55;;;;;;;;;;;;;;;;;;2095856;28;19924;-52
2022/02/25 03:13:58;;;;;;;;;;;;;;;;;;2097947;28;20262;-54
2022/02/25 03:14:59;;;;;;;;;;;;;;;;;;2095028;28;19931;-51
2022/02/25 03:16:00;;;;;;;;;;;;;;;;;;2097785;28;19963;-55
2022/02/25 03:17:01;;;;;;;;;;;;;;;;;;2098146;28;19932;-53
2022/02/25 03:18:02;;;;;;;;;;;;;;;;;;2094416;28;20317;-53
2022/02/25 03:19:02;;;;;;;;;;;;;;;;;;2098337;28;19925;-55
2022/02/25 03:20:03;;;;;;;;;;;;;;;;;;2097988;28;20455;-54
2022/02/25 03:21:05;;;;;;;;;;;;;;;;;;2093327;28;20011;-52
2022/02/25 03:22:06;;;;;;;;;;;;;;;;;;2097912;28;20500;-54
2022/02/25 03:23:07;;;;;;;;;;;;;;;;;;2097237;28;19960;-55
2022/02/25 03:24:09;;;;;;;;;;;;;;;;;;2096557;28;20432;-53
2022/02/25 03:25:10;;;;;;;;;;;;;;;;;;2097892;28;19924;-53
2022/02/25 03:26:10;;;;;;;;;;;;;;;;;;2095919;28;19925;-54
2022/02/25 03:27:11;;;;;;;;;;;;;;;;;;2096411;28;19924;-53
2022/02/25 03:28:12;;;;;;;;;;;;;;;;;;2097931;28;19947;-53
2022/02/25 03:29:13;;;;;;;;;;;;;;;;;;2096416;28;19925;-53
2022/02/25 03:30:14;;;;;;;;;;;;;;;;;;2089518;28;19935;-53
2022/02/25 03:31:15;;;;;;;;;;;;;;;;;;2089765;28;19925;-51
2022/02/25 03:32:16;;;;;;;;;;;;;;;;;;2093287;28;20015;-56
2022/02/25 03:33:17;;;;;;;;;;;;;;;;;;2098015;28;19924;-54
2022/02/25 03:34:18;;;;;;;;;;;;;;;;;;2097674;28;19947;-55
2022/02/25 03:35:19;;;;;;;;;;;;;;;;;;2095154;28;19931;-53
2022/02/25 03:36:20;;;;;;;;;;;;;;;;;;2097717;28;19924;-55
2022/02/25 03:37:21;;;;;;;;;;;;;;;;;;2096901;28;20417;-45
2022/02/25 03:38:23;;;;;;;;;;;;;;;;;;2095155;28;19968;-53
2022/02/25 03:39:24;;;;;;;;;;;;;;;;;;2098175;28;20138;-53
2022/02/25 03:40:27;;;;;;;;;;;;;;;;;;2094154;28;19932;-53
2022/02/25 03:41:28;;;;;;;;;;;;;;;;;;2097578;28;19975;-53
2022/02/25 03:42:29;;;;;;;;;;;;;;;;;;2097836;28;20319;-53
2022/02/25 03:43:29;;;;;;;;;;;;;;;;;;2095793;28;19929;-55
2022/02/25 03:44:30;;;;;;;;;;;;;;;;;;2098146;28;19970;-43
2022/02/25 03:45:31;;;;;;;;;;;;;;;;;;2097696;28;19929;-44
2022/02/25 03:46:32;;;;;;;;;;;;;;;;;;2094151;28;20399;-45
2022/02/25 03:47:33;;;;;;;;;;;;;;;;;;2097995;28;19924;-54
2022/02/25 03:48:34;;;;;;;;;;;;;;;;;;2097702;28;20389;-44
2022/02/25 03:49:35;;;;;;;;;;;;;;;;;;2096016;28;20023;-44
2022/02/25 03:50:38;;;;;;;;;;;;;;;;;;2097819;28;20325;-44
2022/02/25 03:51:38;;;;;;;;;;;;;;;;;;2096413;28;20028;-54
2022/02/25 03:52:39;;;;;;;;;;;;;;;;;;2096070;28;19935;-54
2022/02/25 03:53:40;;;;;;;;;;;;;;;;;;2097779;28;19970;-52
2022/02/25 03:54:41;;;;;;;;;;;;;;;;;;2095263;28;20384;-55
2022/02/25 03:55:42;;;;;;;;;;;;;;;;;;2089576;28;19941;-54
2022/02/25 03:56:43;;;;;;;;;;;;;;;;;;2089448;28;19968;-54
2022/02/25 03:57:44;;;;;;;;;;;;;;;;;;2092823;28;20288;-54
2022/02/25 03:58:44;;;;;;;;;;;;;;;;;;2097667;28;20026;-53
2022/02/25 03:59:45;;;;;;;;;;;;;;;;;;2097802;28;19924;-53
2022/02/25 04:00:50;;;;;;;;;;;;;;;;;;2094201;28;19924;-54
2022/02/25 04:01:52;;;;;;;;;;;;;;;;;;2097789;28;19924;-54
2022/02/25 04:02:53;;;;;;;;;;;;;;;;;;2095713;28;20373;-44
2022/02/25 04:03:54;;;;;;;;;;;;;;;;;;2096284;28;19928;-44
2022/02/25 04:04:55;;;;;;;;;;;;;;;;;;2097267;28;20381;-45
2022/02/25 04:05:58;;;;;;;;;;;;;;;;;;2095398;28;19924;-55
2022/02/25 04:06:59;;;;;;;;;;;;;;;;;;2089418;28;19924;-54
2022/02/25 04:08:00;;;;;;;;;;;;;;;;;;2089385;28;19972;-54
2022/02/25 04:09:01;;;;;;;;;;;;;;;;;;2093427;28;19937;-54
2022/02/25 04:10:03;;;;;;;;;;;;;;;;;;2097939;28;19925;-54
2022/02/25 04:11:04;;;;;;;;;;;;;;;;;;2097839;28;19978;-54
2022/02/25 04:12:05;;;;;;;;;;;;;;;;;;2093095;28;19990;-55
2022/02/25 04:13:05;;;;;;;;;;;;;;;;;;2089545;28;19931;-55
2022/02/25 04:14:06;;;;;;;;;;;;;;;;;;2088937;28;19968;-55
2022/02/25 04:15:07;;;;;;;;;;;;;;;;;;2094959;28;20297;-55
2022/02/25 04:16:08;;;;;;;;;;;;;;;;;;2097685;28;20057;-55
2022/02/25 04:17:09;;;;;;;;;;;;;;;;;;2096263;28;19931;-53
2022/02/25 04:18:10;;;;;;;;;;;;;;;;;;2097099;28;19924;-53
2022/02/25 04:19:11;;;;;;;;;;;;;;;;;;2097653;28;20428;-55
2022/02/25 04:20:12;;;;;;;;;;;;;;;;;;2096625;28;19932;-54
2022/02/25 04:21:13;;;;;;;;;;;;;;;;;;2096700;28;19931;-53
2022/02/25 04:22:14;;;;;;;;;;;;;;;;;;2097562;28;20036;-55
2022/02/25 04:23:15;;;;;;;;;;;;;;;;;;2095380;28;19974;-55
2022/02/25 04:24:16;;;;;;;;;;;;;;;;;;2097514;28;19932;-55
2022/02/25 04:25:17;;;;;;;;;;;;;;;;;;2097188;28;20434;-55
2022/02/25 04:26:17;;;;;;;;;;;;;;;;;;2095269;28;19928;-52
2022/02/25 04:27:18;;;;;;;;;;;;;;;;;;2097719;28;20027;-55
2022/02/25 04:28:19;;;;;;;;;;;;;;;;;;2095704;28;19964;-55
2022/02/25 04:29:20;;;;;;;;;;;;;;;;;;2096405;28;19967;-54
2022/02/25 04:30:21;;;;;;;;;;;;;;;;;;2097617;28;20480;-53
2022/02/25 04:31:22;;;;;;;;;;;;;;;;;;2096243;28;19931;-53
2022/02/25 04:32:23;;;;;;;;;;;;;;;;;;2096264;28;19924;-54
2022/02/25 04:33:24;;;;;;;;;;;;;;;;;;2097716;28;20012;-55
2022/02/25 04:34:25;;;;;;;;;;;;;;;;;;2093066;28;20309;-55
2022/02/25 04:35:26;;;;;;;;;;;;;;;;;;2097785;28;19932;-44
2022/02/25 04:36:27;;;;;;;;;;;;;;;;;;2097557;28;20393;-44
2022/02/25 04:37:27;;;;;;;;;;;;;;;;;;2093998;28;20373;-45
2022/02/25 04:38:28;;;;;;;;;;;;;;;;;;2097613;28;19975;-44
2022/02/25 04:39:29;;;;;;;;;;;;;;;;;;2097152;28;19924;-55
2022/02/25 04:40:30;;;;;;;;;;;;;;;;;;2095918;28;19924;-54
2022/02/25 04:41:31;;;;;;;;;;;;;;;;;;2097481;28;20018;-55
2022/02/25 04:42:32;;;;;;;;;;;;;;;;;;2096732;28;20262;-55
2022/02/25 04:43:33;;;;;;;;;;;;;;;;;;2091217;28;19924;-54
2022/02/25 04:44:34;;;;;;;;;;;;;;;;;;2093793;28;20405;-52
2022/02/25 04:45:34;;;;;;;;;;;;;;;;;;2096403;28;20347;-54
2022/02/25 04:46:35;;;;;;;;;;;;;;;;;;2096917;28;19925;-45
2022/02/25 04:47:36;;;;;;;;;;;;;;;;;;2099040;28;19925;-45
2022/02/25 04:48:37;;;;;;;;;;;;;;;;;;2095840;28;19924;-53
2022/02/25 04:49:38;;;;;;;;;;;;;;;;;;2090841;28;19947;-55
2022/02/25 04:50:39;;;;;;;;;;;;;;;;;;2090708;28;19932;-45
2022/02/25 04:51:40;;;;;;;;;;;;;;;;;;2095722;28;20396;-45
2022/02/25 04:52:41;;;;;;;;;;;;;;;;;;2098975;28;19928;-44
2022/02/25 04:53:41;;;;;;;;;;;;;;;;;;2098545;28;19925;-45
2022/02/25 04:54:42;;;;;;;;;;;;;;;;;;2097066;28;20301;-44
2022/02/25 04:55:46;;;;;;;;;;;;;;;;;;2099205;28;19936;-55
2022/02/25 04:56:46;;;;;;;;;;;;;;;;;;2095739;28;20125;-54
2022/02/25 04:57:47;;;;;;;;;;;;;;;;;;2097589;28;19928;-55
2022/02/25 04:58:48;;;;;;;;;;;;;;;;;;2098956;28;19924;-54
2022/02/25 04:59:49;;;;;;;;;;;;;;;;;;2096989;28;19931;-54
2022/02/25 05:00:50;;;;;;;;;;;;;;;;;;2098772;28;19931;-54
2022/02/25 05:01:51;;;;;;;;;;;;;;;;;;2098781;28;20412;-44
2022/02/25 05:02:53;;;;;;;;;;;;;;;;;;2096611;28;20007;-44
2022/02/25 05:03:54;;;;;;;;;;;;;;;;;;2098903;28;19932;-45
2022/02/25 05:04:54;;;;;;;;;;;;;;;;;;2099049;28;19935;-45
2022/02/25 05:05:55;;;;;;;;;;;;;;;;;;2095590;28;19931;-52
2022/02/25 05:06:56;;;;;;;;;;;;;;;;;;2098754;28;20331;-55
2022/02/25 05:07:59;;;;;;;;;;;;;;;;;;2098295;28;19924;-55
2022/02/25 05:08:59;;;;;;;;;;;;;;;;;;2096185;28;20003;-55
2022/02/25 05:10:00;;;;;;;;;;;;;;;;;;2098968;28;20392;-54
2022/02/25 05:11:01;;;;;;;;;;;;;;;;;;2096974;28;20393;-55
2022/02/25 05:12:02;;;;;;;;;;;;;;;;;;2097595;28;19924;-45
2022/02/25 05:13:03;;;;;;;;;;;;;;;;;;2098846;28;20007;-45
2022/02/25 05:14:04;;;;;;;;;;;;;;;;;;2095432;28;20270;-44
2022/02/25 05:20:25;;;;;;;;;;;;;;;;;;2097066;28;19931;-44
2022/02/25 05:21:25;;;;;;;;;;;;;;;;;;2098632;28;19924;-44
2022/02/25 05:22:26;;;;;;;;;;;;;;;;;;2096594;28;19932;-45
2022/02/25 05:23:27;;;;;;;;;;;;;;;;;;2098465;28;19924;-44
2022/02/25 05:24:28;;;;;;;;;;;;;;;;;;2098729;28;19947;-44
2022/02/25 05:25:29;;;;;;;;;;;;;;;;;;2096628;28;19924;-54
2022/02/25 05:26:30;;;;;;;;;;;;;;;;;;2098574;28;20023;-55
2022/02/25 05:27:31;;;;;;;;;;;;;;;;;;2099060;28;19951;-45
2022/02/25 05:28:32;;;;;;;;;;;;;;;;;;2095082;28;20294;-44
2022/02/25 05:29:32;;;;;;;;;;;;;;;;;;2099011;28;20015;-45
2022/02/25 05:30:33;;;;;;;;;;;;;;;;;;2098414;28;19931;-55
2022/02/25 05:31:34;;;;;;;;;;;;;;;;;;2096924;28;20013;-55
2022/02/25 05:32:36;;;;;;;;;;;;;;;;;;2098630;28;19925;-55
2022/02/25 05:33:36;;;;;;;;;;;;;;;;;;2096473;28;19940;-44
2022/02/25 05:34:37;;;;;;;;;;;;;;;;;;2097769;28;19924;-45
2022/02/25 05:35:38;;;;;;;;;;;;;;;;;;2098653;28;19974;-44
2022/02/25 05:36:39;;;;;;;;;;;;;;;;;;2097932;28;20452;-54
2022/02/25 05:37:40;;;;;;;;;;;;;;;;;;2090444;28;19932;-44
2022/02/25 05:38:41;;;;;;;;;;;;;;;;;;2090322;28;20290;-44
2022/02/25 05:39:42;;;;;;;;;;;;;;;;;;2094457;28;19924;-43
2022/02/25 05:40:43;;;;;;;;;;;;;;;;;;2098635;28;19932;-44
2022/02/25 05:41:43;;;;;;;;;;;;;;;;;;2098620;28;20019;-44
2022/02/25 05:42:45;;;;;;;;;;;;;;;;;;2095606;28;20027;-45
2022/02/25 05:43:46;;;;;;;;;;;;;;;;;;2098644;28;20007;-45
2022/02/25 05:44:47;;;;;;;;;;;;;;;;;;2096500;28;19925;-45
2022/02/25 05:45:48;;;;;;;;;;;;;;;;;;2097341;28;19932;-54
2022/02/25 05:46:49;;;;;;;;;;;;;;;;;;2098498;28;19928;-55
2022/02/25 05:47:50;;;;;;;;;;;;;;;;;;2097124;28;20385;-52
2022/02/25 05:48:50;;;;;;;;;;;;;;;;;;2097159;28;20404;-45
2022/02/25 05:49:51;;;;;;;;;;;;;;;;;;2098479;28;19925;-45
2022/02/25 05:50:53;;;;;;;;;;;;;;;;;;2096564;28;20341;-44
2022/02/25 05:51:54;;;;;;;;;;;;;;;;;;2098462;28;19947;-45
2022/02/25 05:52:55;;;;;;;;;;;;;;;;;;2098448;28;20413;-43
2022/02/25 05:53:56;;;;;;;;;;;;;;;;;;2096493;28;20007;-44
2022/02/25 05:54:57;;;;;;;;;;;;;;;;;;2098557;28;19924;-44
2022/02/25 05:55:58;;;;;;;;;;;;;;;;;;2097927;28;20270;-45
2022/02/25 05:56:59;;;;;;;;;;;;;;;;;;2095630;28;19939;-45
2022/02/25 05:57:59;;;;;;;;;;;;;;;;;;2098135;28;20397;-44
2022/02/25 05:59:00;;;;;;;;;;;;;;;;;;2097254;28;19931;-45
2022/02/25 06:00:01;;;;;;;;;;;;;;;;;;2097057;28;19929;-44
2022/02/25 06:01:02;;;;;;;;;;;;;;;;;;2098461;28;19963;-45
2022/02/25 06:02:03;;;;;;;;;;;;;;;;;;2096114;28;19932;-46
2022/02/25 06:03:04;;;;;;;;;;;;;;;;;;2098251;28;19928;-54
2022/02/25 06:04:05;;;;;;;;;;;;;;;;;;2098668;28;19932;-45
2022/02/25 06:05:06;;;;;;;;;;;;;;;;;;2096636;28;19975;-54
2022/02/25 06:06:07;;;;;;;;;;;;;;;;;;2098361;28;19990;-54
2022/02/25 06:07:08;;;;;;;;;;;;;;;;;;2098648;28;20062;-52
2022/02/25 06:08:09;;;;;;;;;;;;;;;;;;2096350;28;19946;-55
2022/02/25 06:09:10;;;;;;;;;;;;;;;;;;2098391;28;20346;-54
2022/02/25 06:10:11;;;;;;;;;;;;;;;;;;2097437;28;19974;-54
2022/02/25 06:11:12;;;;;;;;;;;;;;;;;;2096117;28;19925;-44
2022/02/25 06:12:13;;;;;;;;;;;;;;;;;;2098458;28;19963;-45
2022/02/25 06:13:14;;;;;;;;;;;;;;;;;;2095623;28;20003;-44
2022/02/25 06:14:15;;;;;;;;;;;;;;;;;;2097136;28;19959;-44
2022/02/25 06:15:16;;;;;;;;;;;;;;;;;;2098675;28;19932;-54
2022/02/25 06:16:17;;;;;;;;;;;;;;;;;;2096447;28;19932;-45
2022/02/25 06:17:18;;;;;;;;;;;;;;;;;;2098389;28;19924;-54
2022/02/25 06:18:19;;;;;;;;;;;;;;;;;;2098139;28;19924;-55
2022/02/25 06:19:19;;;;;;;;;;;;;;;;;;2096347;28;19924;-45
2022/02/25 06:20:20;;;;;;;;;;;;;;;;;;2098328;28;20008;-45
2022/02/25 06:21:21;;;;;;;;;;;;;;;;;;2098400;28;20372;-45
2022/02/25 06:22:22;;;;;;;;;;;;;;;;;;2096438;28;19966;-45
2022/02/25 06:23:24;;;;;;;;;;;;;;;;;;2098291;28;19936;-44
2022/02/25 06:24:25;;;;;;;;;;;;;;;;;;2096752;28;19959;-44
2022/02/25 06:25:26;;;;;;;;;;;;;;;;;;2095389;28;19928;-44
2022/02/25 06:26:27;;;;;;;;;;;;;;;;;;2098671;28;19924;-54
2022/02/25 06:27:28;;;;;;;;;;;;;;;;;;2097631;28;19954;-55
2022/02/25 06:28:30;;;;;;;;;;;;;;;;;;2096896;28;19931;-52
2022/02/25 06:29:31;;;;;;;;;;;;;;;;;;2098176;28;19955;-55
2022/02/25 06:30:32;;;;;;;;;;;;;;;;;;2096585;28;19954;-53
2022/02/25 06:31:33;;;;;;;;;;;;;;;;;;2098095;28;19924;-46
2022/02/25 06:32:34;;;;;;;;;;;;;;;;;;2098374;28;19935;-45
2022/02/25 06:33:37;;;;;;;;;;;;;;;;;;2095995;28;19924;-45
2022/02/25 06:34:38;;;;;;;;;;;;;;;;;;2098374;28;19925;-45
2022/02/25 06:35:39;;;;;;;;;;;;;;;;;;2097798;28;20035;-44
2022/02/25 06:36:40;;;;;;;;;;;;;;;;;;2095470;28;19928;-45
2022/02/25 06:37:41;;;;;;;;;;;;;;;;;;2098476;28;19924;-45
2022/02/25 06:38:41;;;;;;;;;;;;;;;;;;2095688;28;20428;-45
2022/02/25 06:39:45;;;;;;;;;;;;;;;;;;2096268;28;19932;-45
2022/02/25 06:40:46;;;;;;;;;;;;;;;;;;2098595;28;20326;-55
2022/02/25 06:41:47;;;;;;;;;;;;;;;;;;2095160;28;19943;-46
2022/02/25 06:42:48;;;;;;;;;;;;;;;;;;2098497;28;20381;-45
2022/02/25 06:43:48;;;;;;;;;;;;;;;;;;2098301;28;19925;-45
2022/02/25 06:44:50;;;;;;;;;;;;;;;;;;2094839;28;19967;-45
2022/02/25 06:45:50;;;;;;;;;;;;;;;;;;2098436;28;19999;-44
2022/02/25 06:46:51;;;;;;;;;;;;;;;;;;2098234;28;19924;-46
2022/02/25 06:47:52;;;;;;;;;;;;;;;;;;2095926;28;20013;-45
2022/02/25 06:48:53;;;;;;;;;;;;;;;;;;2098362;28;19993;-44
2022/02/25 06:49:54;;;;;;;;;;;;;;;;;;2097955;28;19931;-45
2022/02/25 06:50:55;;;;;;;;;;;;;;;;;;2096222;28;20289;-44
2022/02/25 06:51:56;;;;;;;;;;;;;;;;;;2098087;28;19924;-45
2022/02/25 06:52:57;;;;;;;;;;;;;;;;;;2097305;28;19933;-44
2022/02/25 06:53:58;;;;;;;;;;;;;;;;;;2096738;28;19931;-45
2022/02/25 06:54:59;;;;;;;;;;;;;;;;;;2098338;28;20377;-54
2022/02/25 06:56:15;;;;;;;;;;;;;;;;;;2095740;28;20352;-55
2022/02/25 06:57:16;;;;;;;;;;;;;;;;;;2098180;28;20022;-54
2022/02/25 06:58:19;;;;;;;;;;;;;;;;;;2097710;28;19925;-54
2022/02/25 06:59:20;;;;;;;;;;;;;;;;;;2096758;28;20008;-55
2022/02/25 07:00:21;;;;;;;;;;;;;;;;;;2098071;28;19924;-54
2022/02/25 07:01:22;;;;;;;;;;;;;;;;;;2096890;28;19956;-55
2022/02/25 07:02:23;;;;;;;;;;;;;;;;;;2096407;28;19924;-52
2022/02/25 07:03:24;;;;;;;;;;;;;;;;;;2097868;28;20064;-54